General Aviation Weather

Text Reports

Enter one or more of the following location identifiers separated by a space:

Zip Code, Four-Character ICAO or Three-Character IATA airport codes.

METAR - Aviation Routine Weather Report
PANI - Aniak, Alaska
Updated at 4:36 AM GMT on February 11, 2016 (7:36 PM AKST):
METAR PANI 110436Z 01008KT 10SM CLR M09/M14 A2961 RMK AO1
TAF - Terminal Area Forecast
PANI - Aniak, Alaska
Updated at 4:36 AM GMT on February 11, 2016 (7:36 PM AKST):
No TAF is currently available for this location.
Decoded:
No decoded TAF is available.
PIREP - Pilot Weather Report
PANI - Aniak, Alaska
Updated at 4:36 AM GMT on February 11, 2016 (7:36 PM AKST):
No PIREP is currently available for this location.
AIRMET - Airmens Meteorological Information
PANI - Aniak, Alaska
Updated at 4:36 AM GMT on February 11, 2016 (7:36 PM AKST):
No AIRMET is currently available for this location.
SIGMET - Significant Meteorological Information
PANI - Aniak, Alaska
Updated at 4:36 AM GMT on February 11, 2016 (7:36 PM AKST):
No SIGMET is currently available for this location.
NOTAM - Notice to Airmen
PANI - Aniak, Alaska
Updated at 4:36 AM GMT on February 11, 2016 (7:36 PM AKST):
No NOTAM is currently available for this location.
Forecast Area
PANI - Aniak, Alaska
Updated at 4:36 AM GMT on February 11, 2016 (7:36 PM AKST):
No NOTAM is currently available for this location.
Aviation Weather Maps